Terminal Aerodrome Forecast
Issued by NWS

Home | Current Version | Previous Version | Text Only | Print | Product List | Glossary On
Versions: 1 2 3 4 5 6 7 8 9 10 11 12 13 14 15 16 17 18 19 20 21 22 23 24
000
FTUS45 KBOI 041956 AAA
TAFTWF
TAF AMD
KTWF 041956Z 0420/0518 VRB06KT P6SM VCTS SCT100CB BKN200
      TEMPO 0420/0423 VRB10G20KT -TSRA
     FM042300 VRB06KT P6SM VCTS SCT100CB BKN200
      TEMPO 0500/0503 VRB20G30KT 6SM BLDU
     FM050300 20011KT P6SM SCT110 BKN150=

USA.gov is the U.S. government's official web portal to all federal, state and local government web resources and services.